Aviation Digital Data Service (ADDS)

Output produced by METARs form (2224 UTC 24 March 2019)
found at http://www.aviationweather.gov/metar/data/
 
OLBA 242200Z 00000KT 8000 FEW035 15/10 Q1002 NOSIG
TAF OLBA 242200Z 2500/2606 VRB03KT 7000 SCT030 SCT100 
     TEMPO 2500/2509 5000 RA 
     BECMG 2509/2512 33010G20KT SCT040 BKN180 
     BECMG 2518/2521 23010G20KT